Terminal Aerodrome Forecast
Issued by NWS Albany, NY

Home | Current Version | Previous Version | Text Only | Print | Product List | Glossary On
Versions: 1 2 3 4 5 6 7 8 9 10 11 12 13 14 15 16
000
FTUS41 KALY 292338
TAFGFL
TAF
KGFL 292338Z 3000/3024 VRB03KT P6SM FEW250
     FM300500 00000KT 6SM BR SCT250
     FM300800 00000KT 1 1/2SM BR FEW005 SCT040 BKN250
     FM301200 18005KT P6SM BKN040
     FM301600 20008KT P6SM VCSH SCT020 OVC040
     FM301900 22009KT 5SM -SHRA BR SCT015 OVC035=

USA.gov is the U.S. government's official web portal to all federal, state and local government web resources and services.